createdAt,value
2023-05-04T00:04:31.626Z,3.94
2023-05-04T00:09:34.004Z,3.91
2023-05-04T00:14:37.717Z,3.84
2023-05-04T00:19:39.824Z,3.76
2023-05-04T00:24:41.940Z,3.79
2023-05-04T00:29:45.312Z,3.68
2023-05-04T00:34:48.443Z,3.70
2023-05-04T00:39:50.352Z,3.60
2023-05-04T00:44:53.949Z,3.61
2023-05-04T00:49:56.319Z,3.42
2023-05-04T00:55:00.501Z,3.37
2023-05-04T01:00:04.812Z,3.40
2023-05-04T01:05:08.994Z,3.40
2023-05-04T01:10:14.640Z,3.39
2023-05-04T01:15:18.523Z,3.35
2023-05-04T01:20:20.608Z,3.17
2023-05-04T01:25:27.041Z,3.10
2023-05-04T01:30:32.639Z,3.10
2023-05-04T01:35:35.729Z,3.09
2023-05-04T01:40:39.238Z,3.06
2023-05-04T01:45:41.520Z,2.98
2023-05-04T01:50:43.491Z,3.00
2023-05-04T01:55:46.897Z,2.96
2023-05-04T02:00:49.034Z,2.78
2023-05-04T02:05:51.115Z,2.82
2023-05-04T02:10:54.539Z,2.90
2023-05-04T02:15:56.424Z,2.89
2023-05-04T02:20:58.477Z,2.84
2023-05-04T02:26:01.557Z,2.74
2023-05-04T02:31:03.669Z,2.68
2023-05-04T02:36:06.362Z,2.63
2023-05-04T02:41:09.712Z,2.55
2023-05-04T02:46:12.039Z,2.49
2023-05-04T02:51:14.108Z,2.51
2023-05-04T02:56:17.557Z,2.44
2023-05-04T03:01:19.611Z,2.25
2023-05-04T03:06:22.047Z,2.32
2023-05-04T03:11:25.424Z,2.22
2023-05-04T03:16:27.638Z,2.16
2023-05-04T03:21:29.381Z,2.28
2023-05-04T03:26:32.853Z,2.31
2023-05-04T03:31:35.184Z,2.16
2023-05-04T03:36:37.255Z,2.17
2023-05-04T03:41:40.937Z,2.17
2023-05-04T03:46:43.926Z,2.17
2023-05-04T03:51:46.202Z,2.19
2023-05-04T03:56:49.661Z,2.23
2023-05-04T04:01:52.130Z,2.31
2023-05-04T04:06:53.807Z,2.33
2023-05-04T04:11:56.881Z,2.44
2023-05-04T04:16:58.529Z,2.55
2023-05-04T04:22:00.207Z,2.64
2023-05-04T04:27:04.203Z,2.71
2023-05-04T04:32:06.299Z,2.89
2023-05-04T04:37:08.381Z,3.99
2023-05-04T04:42:11.862Z,6.48
2023-05-04T04:47:13.777Z,8.84
2023-05-04T04:52:16.225Z,11.04
2023-05-04T04:57:19.246Z,12.74
2023-05-04T05:02:21.514Z,13.73
2023-05-04T05:07:23.686Z,14.36
2023-05-04T05:12:27.323Z,15.77
2023-05-04T05:17:29.603Z,16.25
2023-05-04T05:22:31.815Z,14.94
2023-05-04T05:27:35.961Z,14.01
2023-05-04T05:32:38.103Z,13.49
2023-05-04T05:37:40.477Z,13.13
2023-05-04T05:42:43.556Z,14.93
2023-05-04T05:47:46.026Z,17.26
2023-05-04T05:52:48.577Z,15.46
2023-05-04T05:57:51.688Z,16.63
2023-05-04T06:02:54.359Z,17.44
2023-05-04T06:07:57.641Z,16.19
2023-05-04T06:13:01.191Z,17.32
2023-05-04T06:18:03.519Z,18.13
2023-05-04T06:23:05.331Z,19.64
2023-05-04T06:28:09.410Z,19.82
2023-05-04T06:33:11.872Z,20.36
2023-05-04T06:38:14.187Z,18.87
2023-05-04T06:43:17.820Z,16.40
2023-05-04T06:48:19.958Z,14.84
2023-05-04T06:53:21.980Z,16.01
2023-05-04T06:58:25.595Z,15.24
2023-05-04T07:03:27.720Z,15.29
2023-05-04T07:08:29.892Z,14.99
2023-05-04T07:13:33.469Z,13.45
2023-05-04T07:18:35.592Z,16.00
2023-05-04T07:23:38.114Z,14.63
2023-05-04T07:28:41.866Z,14.53
2023-05-04T07:33:44.203Z,15.33
2023-05-04T07:38:46.426Z,14.86
2023-05-04T07:43:49.991Z,14.96
2023-05-04T07:48:52.131Z,14.94
2023-05-04T07:53:53.873Z,15.01
2023-05-04T07:58:57.734Z,15.08
2023-05-04T08:04:00.054Z,15.04
2023-05-04T08:09:02.202Z,14.88
2023-05-04T08:14:05.378Z,15.25
2023-05-04T08:19:07.469Z,15.51
2023-05-04T08:24:09.648Z,15.99
2023-05-04T08:29:13.333Z,16.41
2023-05-04T08:34:15.419Z,16.46
2023-05-04T08:39:18.431Z,16.57
2023-05-04T08:44:22.464Z,16.92
2023-05-04T08:49:25.063Z,17.61
2023-05-04T08:54:27.806Z,19.77
2023-05-04T08:59:33.009Z,19.25
2023-05-04T09:04:35.468Z,20.65
2023-05-04T09:09:37.596Z,19.96
2023-05-04T09:14:41.587Z,22.41
2023-05-04T09:19:44.114Z,22.37
2023-05-04T09:24:46.795Z,23.57
2023-05-04T09:29:56.715Z,23.39
2023-05-04T09:34:58.900Z,23.40
2023-05-04T09:40:00.691Z,22.42
2023-05-04T09:45:05.848Z,23.27
2023-05-04T09:50:12.621Z,23.37
2023-05-04T09:55:16.324Z,24.38
2023-05-04T10:00:20.668Z,24.61
2023-05-04T10:05:23.016Z,21.46
2023-05-04T10:10:25.575Z,21.67
2023-05-04T10:15:29.192Z,22.13
2023-05-04T10:20:46.422Z,22.02
2023-05-04T10:26:21.239Z,21.72
2023-05-04T10:31:24.733Z,21.11
2023-05-04T10:36:35.935Z,21.33
2023-05-04T10:41:38.028Z,21.30
2023-05-04T10:46:41.532Z,23.54
2023-05-04T10:51:49.307Z,22.78
2023-05-04T10:57:02.301Z,22.35
2023-05-04T11:02:06.321Z,21.12
2023-05-04T11:07:08.604Z,21.71
2023-05-04T11:12:14.874Z,21.76
2023-05-04T11:22:23.797Z,21.56
2023-05-04T11:27:27.018Z,20.49
2023-05-04T11:32:40.791Z,19.56
2023-05-04T11:37:44.253Z,19.96
2023-05-04T11:42:46.928Z,20.34
2023-05-04T11:47:51.704Z,20.76
2023-05-04T11:53:04.068Z,21.65
2023-05-04T11:58:07.363Z,21.05
2023-05-04T12:03:13.525Z,20.84
2023-05-04T12:08:25.365Z,22.11
2023-05-04T12:13:27.484Z,22.15
2023-05-04T12:18:30.815Z,22.23
2023-05-04T12:23:32.956Z,22.64
2023-05-04T12:28:35.768Z,21.86
2023-05-04T12:33:39.485Z,21.78
2023-05-04T12:38:41.593Z,21.36
2023-05-04T12:43:43.775Z,21.15
2023-05-04T12:48:47.282Z,21.90
2023-05-04T12:53:48.981Z,21.26
2023-05-04T12:58:51.143Z,21.48
2023-05-04T13:03:54.746Z,21.51
2023-05-04T13:08:57.258Z,21.80
2023-05-04T13:13:59.357Z,22.21
2023-05-04T13:19:02.935Z,21.66
2023-05-04T13:24:05.827Z,21.38
2023-05-04T13:29:08.409Z,21.61
2023-05-04T13:34:11.870Z,21.35
2023-05-04T13:39:14.029Z,21.22
2023-05-04T13:44:15.711Z,21.93
2023-05-04T13:49:18.810Z,21.10
2023-05-04T13:54:20.929Z,21.76
2023-05-04T13:59:23.019Z,21.56
2023-05-04T14:04:27.002Z,21.74
2023-05-04T14:09:29.154Z,21.08
2023-05-04T14:14:31.174Z,21.32
2023-05-04T14:19:34.654Z,21.90
2023-05-04T14:24:36.849Z,22.00
2023-05-04T14:29:38.577Z,21.78
2023-05-04T14:34:41.948Z,22.03
2023-05-04T14:39:44.009Z,22.02
2023-05-04T14:44:46.146Z,21.83
2023-05-04T14:49:50.484Z,21.71
2023-05-04T14:54:52.819Z,21.56
2023-05-04T14:59:54.717Z,21.31
2023-05-04T15:04:58.152Z,21.31
2023-05-04T15:10:00.290Z,21.30
2023-05-04T15:15:02.458Z,21.40
2023-05-04T15:20:07.901Z,21.40
2023-05-04T15:25:10.716Z,21.24
2023-05-04T15:30:13.241Z,20.66
2023-05-04T15:35:16.623Z,20.83
2023-05-04T15:40:18.533Z,20.83
2023-05-04T15:45:21.556Z,20.93
2023-05-04T15:50:24.655Z,21.45
2023-05-04T15:55:26.973Z,20.66
2023-05-04T16:00:29.360Z,20.79
2023-05-04T16:05:32.823Z,20.78
2023-05-04T16:10:34.517Z,20.44
2023-05-04T16:15:36.242Z,20.14
2023-05-04T16:20:39.303Z,20.06
2023-05-04T16:25:42.495Z,20.39
2023-05-04T16:30:44.700Z,20.78
2023-05-04T16:35:48.192Z,20.89
2023-05-04T16:40:49.914Z,20.73
2023-05-04T16:45:52.074Z,20.88
2023-05-04T16:50:55.157Z,20.52
2023-05-04T16:55:57.353Z,20.04
2023-05-04T17:00:59.061Z,20.04
2023-05-04T17:06:03.755Z,20.00
2023-05-04T17:11:06.757Z,19.87
2023-05-04T17:16:09.552Z,19.55
2023-05-04T17:21:12.833Z,19.31
2023-05-04T17:26:14.972Z,18.91
2023-05-04T17:31:17.156Z,18.72
2023-05-04T17:36:20.931Z,18.58
2023-05-04T17:41:23.432Z,18.42
2023-05-04T17:46:25.578Z,18.27
2023-05-04T17:51:29.061Z,18.14
2023-05-04T17:56:30.885Z,18.02
2023-05-04T18:01:32.997Z,17.79
2023-05-04T18:06:36.698Z,17.62
2023-05-04T18:11:38.879Z,17.39
2023-05-04T18:16:41.339Z,17.07
2023-05-04T18:21:44.424Z,16.90
2023-05-04T18:26:46.578Z,16.66
2023-05-04T18:31:49.407Z,16.42
2023-05-04T18:36:53.341Z,16.22
2023-05-04T18:41:55.096Z,16.01
2023-05-04T18:46:57.074Z,15.84
2023-05-04T18:52:01.172Z,15.68
2023-05-04T18:57:03.344Z,15.39
2023-05-04T19:02:05.536Z,15.09
2023-05-04T19:07:09.131Z,14.94
2023-05-04T19:12:11.333Z,14.83
2023-05-04T19:17:13.428Z,14.68
2023-05-04T19:22:16.537Z,14.51
2023-05-04T19:27:19.789Z,14.30
2023-05-04T19:32:24.801Z,14.20
2023-05-04T19:37:28.641Z,14.22
2023-05-04T19:42:31.151Z,14.03
2023-05-04T19:47:33.392Z,13.84
2023-05-04T19:52:37.527Z,13.71
2023-05-04T19:57:39.833Z,13.58
2023-05-04T20:02:41.615Z,13.43
2023-05-04T20:07:45.181Z,13.39
2023-05-04T20:12:47.613Z,13.27
2023-05-04T20:17:49.892Z,13.31
2023-05-04T20:22:53.264Z,13.67
2023-05-04T20:27:55.273Z,13.83
2023-05-04T20:32:57.069Z,14.07
2023-05-04T20:38:01.424Z,14.22
2023-05-04T20:43:03.789Z,14.20
2023-05-04T20:48:06.242Z,14.09
2023-05-04T20:53:09.974Z,13.90
2023-05-04T20:58:12.035Z,13.74
2023-05-04T21:03:14.046Z,13.47
2023-05-04T21:08:17.518Z,13.37
2023-05-04T21:13:19.988Z,13.23
2023-05-04T21:18:22.499Z,13.18
2023-05-04T21:23:26.109Z,13.12
2023-05-04T21:28:28.286Z,13.20
2023-05-04T21:33:30.449Z,13.27
2023-05-04T21:38:34.276Z,13.35
2023-05-04T21:43:36.440Z,13.12
2023-05-04T21:48:39.114Z,13.06
2023-05-04T21:53:44.605Z,12.94
2023-05-04T21:58:46.731Z,12.89
2023-05-04T22:03:48.841Z,12.80
2023-05-04T22:08:52.307Z,12.57
2023-05-04T22:13:54.350Z,12.52
2023-05-04T22:18:56.506Z,12.27
2023-05-04T22:24:00.093Z,12.19
2023-05-04T22:29:02.466Z,12.13
2023-05-04T22:34:04.551Z,12.21
2023-05-04T22:39:08.234Z,12.09
2023-05-04T22:44:10.226Z,12.10
2023-05-04T22:49:12.245Z,11.87
2023-05-04T22:54:15.759Z,11.76
2023-05-04T22:59:18.254Z,11.78
2023-05-04T23:04:20.704Z,11.79
2023-05-04T23:09:24.026Z,11.65
2023-05-04T23:14:26.290Z,11.58
2023-05-04T23:19:28.929Z,11.51
2023-05-04T23:24:32.651Z,11.48
2023-05-04T23:29:34.760Z,11.51
2023-05-04T23:34:36.756Z,11.58
2023-05-04T23:39:40.420Z,11.58
2023-05-04T23:44:42.460Z,11.49
2023-05-04T23:49:44.489Z,11.38
2023-05-04T23:54:52.773Z,11.26
2023-05-04T23:59:54.943Z,11.24
